createdAt,value
2019-05-28T00:00:10.455Z,75.90
2019-05-28T00:01:12.151Z,75.80
2019-05-28T00:02:13.883Z,75.40
2019-05-28T00:03:15.020Z,75.30
2019-05-28T00:04:16.195Z,75.40
2019-05-28T00:05:17.662Z,75.60
2019-05-28T00:06:18.824Z,76.20
2019-05-28T00:07:19.904Z,76.90
2019-05-28T00:08:21.007Z,76.80
2019-05-28T00:09:22.483Z,76.80
2019-05-28T00:10:23.637Z,77.90
2019-05-28T00:11:24.954Z,76.70
2019-05-28T00:12:26.154Z,76.70
2019-05-28T00:13:27.664Z,76.90
2019-05-28T00:14:29.137Z,77.00
2019-05-28T00:15:30.994Z,77.20
2019-05-28T00:16:32.172Z,77.40
2019-05-28T00:17:33.221Z,77.50
2019-05-28T00:18:34.321Z,77.70
2019-05-28T00:19:35.401Z,77.80
2019-05-28T00:20:36.479Z,77.50
2019-05-28T00:21:37.581Z,77.30
2019-05-28T00:22:38.705Z,77.40
2019-05-28T00:23:39.966Z,77.10
2019-05-28T00:24:41.135Z,76.70
2019-05-28T00:25:42.342Z,76.90
2019-05-28T00:26:43.484Z,77.20
2019-05-28T00:27:44.562Z,76.70
2019-05-28T00:28:45.651Z,76.70
2019-05-28T00:29:46.813Z,76.30
2019-05-28T00:30:48.027Z,76.40
2019-05-28T00:31:49.173Z,76.40
2019-05-28T00:32:50.348Z,76.40
2019-05-28T00:33:51.557Z,76.20
2019-05-28T00:34:52.764Z,76.30
2019-05-28T00:35:53.913Z,76.00
2019-05-28T00:36:55.366Z,75.80
2019-05-28T00:37:56.484Z,75.80
2019-05-28T00:38:57.573Z,75.40
2019-05-28T00:40:02.385Z,75.30
2019-05-28T00:41:01.636Z,75.10
2019-05-28T00:42:02.813Z,74.90
2019-05-28T00:43:03.869Z,75.20
2019-05-28T00:44:04.945Z,76.40
2019-05-28T00:45:07.327Z,76.50
2019-05-28T00:46:08.498Z,76.50
2019-05-28T00:47:09.770Z,76.60
2019-05-28T00:48:10.967Z,76.60
2019-05-28T00:49:12.512Z,76.80
2019-05-28T00:50:14.405Z,76.90
2019-05-28T00:51:15.564Z,76.70
2019-05-28T00:52:16.629Z,76.60
2019-05-28T00:53:17.793Z,76.50
2019-05-28T00:54:18.864Z,77.00
2019-05-28T00:55:20.061Z,77.20
2019-05-28T00:56:21.404Z,77.50
2019-05-28T00:57:23.595Z,76.90
2019-05-28T00:58:25.684Z,76.80
2019-05-28T00:59:28.248Z,76.70
2019-05-28T01:00:47.884Z,76.70
2019-05-28T01:01:49.047Z,76.60
2019-05-28T01:02:50.113Z,76.60
2019-05-28T01:03:51.281Z,77.20
2019-05-28T01:04:52.462Z,77.20
2019-05-28T01:05:53.622Z,76.90
2019-05-28T01:07:00.485Z,76.70
2019-05-28T01:08:01.655Z,76.60
2019-05-28T01:09:05.766Z,76.50
2019-05-28T01:10:07.723Z,76.70
2019-05-28T01:11:09.000Z,76.90
2019-05-28T01:12:10.131Z,76.90
2019-05-28T01:13:11.419Z,77.00
2019-05-28T01:14:12.586Z,77.20
2019-05-28T01:15:13.983Z,77.20
2019-05-28T01:16:15.141Z,77.40
2019-05-28T01:17:16.285Z,77.40
2019-05-28T01:18:17.553Z,77.60
2019-05-28T01:19:18.702Z,77.60
2019-05-28T01:20:19.879Z,77.40
2019-05-28T01:21:21.289Z,77.20
2019-05-28T01:22:22.602Z,77.80
2019-05-28T01:23:23.658Z,77.80
2019-05-28T01:24:24.729Z,76.50
2019-05-28T01:25:25.790Z,76.50
2019-05-28T01:26:26.857Z,76.40
2019-05-28T01:27:27.925Z,75.60
2019-05-28T01:28:29.012Z,76.90
2019-05-28T01:29:30.163Z,77.50
2019-05-28T01:30:31.479Z,74.80
2019-05-28T01:31:32.792Z,74.50
2019-05-28T01:32:33.977Z,74.50
2019-05-28T01:33:35.166Z,74.50
2019-05-28T01:34:36.352Z,74.60
2019-05-28T01:35:37.547Z,74.50
2019-05-28T01:36:38.745Z,74.50
2019-05-28T01:37:39.978Z,74.70
2019-05-28T01:38:41.193Z,75.40
2019-05-28T01:39:42.470Z,75.40
2019-05-28T01:40:43.622Z,74.60
2019-05-28T01:41:44.680Z,75.20
2019-05-28T01:42:45.841Z,74.90
2019-05-28T01:43:46.923Z,74.50
2019-05-28T01:44:47.997Z,75.00
2019-05-28T01:45:49.058Z,76.10
2019-05-28T01:46:50.132Z,76.20
2019-05-28T01:47:51.209Z,75.60
2019-05-28T01:48:52.399Z,75.30
2019-05-28T01:49:53.464Z,75.40
2019-05-28T01:50:54.582Z,74.50
2019-05-28T01:51:55.727Z,74.50
2019-05-28T01:52:56.906Z,74.60
2019-05-28T01:53:57.980Z,74.50
2019-05-28T01:54:59.068Z,74.50
2019-05-28T01:56:00.229Z,74.50
2019-05-28T01:57:01.415Z,74.90
2019-05-28T01:58:02.480Z,74.90
2019-05-28T01:59:03.597Z,74.50
2019-05-28T02:00:07.319Z,74.50
2019-05-28T02:01:12.568Z,74.50
2019-05-28T02:02:11.394Z,74.30
2019-05-28T02:03:12.480Z,74.50
2019-05-28T02:04:13.588Z,74.50
2019-05-28T02:05:14.976Z,74.40
2019-05-28T02:06:16.041Z,74.40
2019-05-28T02:07:17.215Z,74.80
2019-05-28T02:08:18.334Z,74.80
2019-05-28T02:09:19.529Z,75.00
2019-05-28T02:10:20.598Z,75.10
2019-05-28T02:11:21.793Z,74.70
2019-05-28T02:12:22.965Z,74.80
2019-05-28T02:13:24.135Z,75.00
2019-05-28T02:14:25.240Z,75.00
2019-05-28T02:15:26.618Z,74.80
2019-05-28T02:16:27.791Z,74.70
2019-05-28T02:17:29.216Z,74.30
2019-05-28T02:18:30.366Z,75.00
2019-05-28T02:19:31.452Z,75.00
2019-05-28T02:20:32.628Z,75.40
2019-05-28T02:21:33.808Z,75.20
2019-05-28T02:22:34.975Z,75.70
2019-05-28T02:23:36.141Z,76.00
2019-05-28T02:24:37.230Z,76.10
2019-05-28T02:25:38.498Z,76.40
2019-05-28T02:26:39.648Z,76.60
2019-05-28T02:27:40.714Z,76.10
2019-05-28T02:28:41.787Z,76.00
2019-05-28T02:29:42.859Z,76.00
2019-05-28T02:30:43.941Z,75.90
2019-05-28T02:31:45.129Z,76.50
2019-05-28T02:32:46.305Z,75.30
2019-05-28T02:33:47.656Z,76.20
2019-05-28T02:34:48.728Z,75.00
2019-05-28T02:35:49.803Z,75.30
2019-05-28T02:36:50.874Z,75.10
2019-05-28T02:37:51.941Z,75.30
2019-05-28T02:38:53.010Z,75.20
2019-05-28T02:39:54.275Z,75.00
2019-05-28T02:40:55.454Z,76.20
2019-05-28T02:41:56.826Z,75.30
2019-05-28T02:42:58.209Z,75.50
2019-05-28T02:43:59.377Z,75.90
2019-05-28T02:45:00.483Z,75.40
2019-05-28T02:46:01.656Z,75.40
2019-05-28T02:47:02.929Z,75.30
2019-05-28T02:48:04.338Z,75.30
2019-05-28T02:49:05.485Z,75.50
2019-05-28T02:50:08.073Z,75.90
2019-05-28T02:51:10.483Z,75.80
2019-05-28T02:52:11.640Z,75.60
2019-05-28T02:53:12.897Z,75.40
2019-05-28T02:54:14.177Z,75.70
2019-05-28T02:55:15.353Z,76.20
2019-05-28T02:56:17.410Z,75.10
2019-05-28T02:57:21.009Z,75.00
2019-05-28T02:58:25.903Z,76.00
2019-05-28T02:59:30.687Z,76.00
2019-05-28T03:00:31.881Z,75.50
2019-05-28T03:01:44.464Z,75.40
2019-05-28T03:02:42.633Z,75.00
2019-05-28T03:03:48.565Z,74.90
2019-05-28T03:04:53.483Z,74.50
2019-05-28T03:05:56.744Z,74.70
2019-05-28T03:07:00.914Z,74.20
2019-05-28T03:08:02.912Z,74.10
2019-05-28T03:09:06.037Z,74.20
2019-05-28T03:10:07.821Z,74.30
2019-05-28T03:11:08.984Z,74.50
2019-05-28T03:12:10.042Z,74.40
2019-05-28T03:13:11.125Z,75.40
2019-05-28T03:14:12.189Z,75.40
2019-05-28T03:15:13.455Z,75.00
2019-05-28T03:16:17.146Z,75.30
2019-05-28T03:17:19.618Z,75.80
2019-05-28T03:18:22.289Z,75.80
2019-05-28T03:19:25.994Z,76.10
2019-05-28T03:20:27.387Z,76.20
2019-05-28T03:21:30.563Z,76.40
2019-05-28T03:22:32.759Z,76.30
2019-05-28T03:23:36.346Z,76.90
2019-05-28T03:24:38.600Z,77.90
2019-05-28T03:25:40.191Z,77.50
2019-05-28T03:26:41.357Z,77.20
2019-05-28T03:27:42.517Z,77.90
2019-05-28T03:28:43.612Z,77.80
2019-05-28T03:29:44.879Z,77.90
2019-05-28T03:30:46.082Z,78.60
2019-05-28T03:32:06.042Z,77.80
2019-05-28T03:32:50.280Z,77.90
2019-05-28T03:33:51.398Z,77.80
2019-05-28T03:34:52.448Z,77.80
2019-05-28T03:35:55.232Z,77.80
2019-05-28T03:36:57.390Z,79.10
2019-05-28T03:38:00.854Z,78.40
2019-05-28T03:39:03.113Z,77.90
2019-05-28T03:40:08.143Z,77.90
2019-05-28T03:41:09.221Z,78.20
2019-05-28T03:42:10.300Z,78.60
2019-05-28T03:43:11.750Z,78.40
2019-05-28T03:44:12.833Z,78.10
2019-05-28T03:45:14.448Z,78.50
2019-05-28T03:46:15.524Z,78.50
2019-05-28T03:47:16.581Z,78.70
2019-05-28T03:48:17.731Z,78.60
2019-05-28T03:49:18.789Z,79.00
2019-05-28T03:50:19.843Z,78.90
2019-05-28T03:51:21.013Z,78.90
2019-05-28T03:52:22.212Z,78.70
2019-05-28T03:53:23.344Z,78.30
2019-05-28T03:54:24.403Z,78.40
2019-05-28T03:55:25.455Z,78.60
2019-05-28T03:56:26.534Z,78.30
2019-05-28T03:57:27.681Z,78.40
2019-05-28T03:58:28.753Z,78.20
2019-05-28T03:59:29.809Z,78.60
2019-05-28T04:00:30.930Z,78.50
2019-05-28T04:01:32.119Z,78.60
2019-05-28T04:02:33.179Z,78.40
2019-05-28T04:03:34.290Z,78.40
2019-05-28T04:04:35.458Z,78.40
2019-05-28T04:05:36.520Z,78.60
2019-05-28T04:06:40.663Z,78.50
2019-05-28T04:07:41.748Z,78.60
2019-05-28T04:08:42.812Z,78.40
2019-05-28T04:09:43.876Z,78.40
2019-05-28T04:10:44.940Z,78.40
2019-05-28T04:11:46.118Z,79.00
2019-05-28T04:12:47.196Z,79.20
2019-05-28T04:13:48.262Z,78.50
2019-05-28T04:14:49.324Z,77.80
2019-05-28T04:15:50.412Z,77.10
2019-05-28T04:16:51.614Z,77.40
2019-05-28T04:17:52.729Z,77.50
2019-05-28T04:18:53.783Z,77.70
2019-05-28T04:19:54.846Z,77.80
2019-05-28T04:20:55.918Z,77.80
2019-05-28T04:21:56.974Z,77.00
2019-05-28T04:22:58.034Z,77.60
2019-05-28T04:23:59.095Z,77.50
2019-05-28T04:25:00.206Z,77.60
2019-05-28T04:26:01.740Z,77.60
2019-05-28T04:27:02.922Z,77.50
2019-05-28T04:28:04.072Z,77.90
2019-05-28T04:29:05.241Z,77.60
2019-05-28T04:30:06.944Z,77.60
2019-05-28T04:31:08.006Z,77.60
2019-05-28T04:32:11.830Z,77.50
2019-05-28T04:33:12.938Z,78.10
2019-05-28T04:34:14.026Z,77.60
2019-05-28T04:35:15.201Z,77.50
2019-05-28T04:36:16.652Z,77.80
2019-05-28T04:37:17.725Z,78.20
2019-05-28T04:38:18.836Z,78.90
2019-05-28T04:39:19.983Z,78.30
2019-05-28T04:40:21.047Z,78.60
2019-05-28T04:41:22.104Z,79.00
2019-05-28T04:42:23.162Z,79.20
2019-05-28T04:43:24.209Z,79.00
2019-05-28T04:44:25.570Z,79.30
2019-05-28T04:45:26.660Z,78.90
2019-05-28T04:46:28.082Z,79.20
2019-05-28T04:47:29.264Z,79.30
2019-05-28T04:48:30.401Z,79.50
2019-05-28T04:49:31.596Z,79.00
2019-05-28T04:50:32.751Z,79.00
2019-05-28T04:51:33.835Z,78.80
2019-05-28T04:52:35.085Z,79.00
2019-05-28T04:53:36.153Z,78.70
2019-05-28T04:54:37.241Z,78.70
2019-05-28T04:55:38.410Z,77.40
2019-05-28T04:56:39.602Z,78.20
2019-05-28T04:57:40.756Z,78.20
2019-05-28T04:58:41.817Z,77.50
2019-05-28T04:59:42.864Z,78.20
2019-05-28T05:00:44.037Z,78.20
2019-05-28T05:01:45.116Z,77.20
2019-05-28T05:02:58.817Z,77.80
2019-05-28T05:03:49.210Z,78.40
2019-05-28T05:04:50.570Z,77.50
2019-05-28T05:05:51.744Z,77.70
2019-05-28T05:06:52.900Z,76.90
2019-05-28T05:07:54.177Z,77.40
2019-05-28T05:08:55.339Z,77.70
2019-05-28T05:09:56.442Z,78.20
2019-05-28T05:10:57.584Z,77.70
2019-05-28T05:11:58.676Z,77.40
2019-05-28T05:12:59.752Z,77.50
2019-05-28T05:14:00.923Z,77.30
2019-05-28T05:15:03.975Z,77.30
2019-05-28T05:16:05.156Z,77.10
2019-05-28T05:17:06.221Z,77.20
2019-05-28T05:18:07.299Z,77.80
2019-05-28T05:19:08.706Z,77.70
2019-05-28T05:20:10.285Z,77.00
2019-05-28T05:21:11.433Z,77.20
2019-05-28T05:22:12.602Z,77.30
2019-05-28T05:23:13.665Z,77.40
2019-05-28T05:24:14.766Z,77.30
2019-05-28T05:25:15.996Z,76.90
2019-05-28T05:26:17.119Z,77.60
2019-05-28T05:27:18.499Z,76.80
2019-05-28T05:28:19.560Z,76.80
2019-05-28T05:29:20.644Z,76.80
2019-05-28T05:30:21.961Z,77.30
2019-05-28T05:31:23.123Z,78.30
2019-05-28T05:32:27.634Z,78.30
2019-05-28T05:33:27.272Z,78.40
2019-05-28T05:34:28.417Z,78.20
2019-05-28T05:35:29.489Z,77.90
2019-05-28T05:36:30.567Z,77.20
2019-05-28T05:37:31.737Z,77.90
2019-05-28T05:38:32.805Z,78.00
2019-05-28T05:39:33.881Z,78.10
2019-05-28T05:40:35.012Z,77.70
2019-05-28T05:41:36.076Z,77.30
2019-05-28T05:42:37.159Z,77.20
2019-05-28T05:43:38.212Z,76.70
2019-05-28T05:44:39.262Z,75.90
2019-05-28T05:45:40.320Z,76.30
2019-05-28T05:46:41.372Z,76.40
2019-05-28T05:47:42.447Z,76.30
2019-05-28T05:48:43.645Z,76.30
2019-05-28T05:49:44.809Z,75.50
2019-05-28T05:50:45.890Z,75.30
2019-05-28T05:51:46.948Z,74.90
2019-05-28T05:52:48.029Z,74.90
2019-05-28T05:53:49.099Z,74.90
2019-05-28T05:54:50.449Z,75.40
2019-05-28T05:55:51.565Z,75.70
2019-05-28T05:56:52.627Z,75.00
2019-05-28T05:57:53.700Z,75.10
2019-05-28T05:58:54.870Z,76.70
2019-05-28T05:59:56.017Z,76.80
2019-05-28T06:00:57.077Z,76.60
2019-05-28T06:01:58.144Z,76.60
2019-05-28T06:02:59.224Z,76.70
2019-05-28T06:04:00.288Z,75.80
2019-05-28T06:05:03.060Z,75.50
2019-05-28T06:06:04.138Z,75.00
2019-05-28T06:07:05.209Z,74.70
2019-05-28T06:08:06.296Z,74.50
2019-05-28T06:09:07.454Z,74.40
2019-05-28T06:10:09.140Z,74.60
2019-05-28T06:11:10.344Z,74.60
2019-05-28T06:12:11.407Z,76.00
2019-05-28T06:13:12.478Z,75.90
2019-05-28T06:14:13.573Z,76.00
2019-05-28T06:15:14.827Z,76.20
2019-05-28T06:16:15.995Z,75.80
2019-05-28T06:17:17.168Z,76.50
2019-05-28T06:18:18.336Z,76.40
2019-05-28T06:19:19.494Z,75.50
2019-05-28T06:20:20.979Z,75.70
2019-05-28T06:21:22.362Z,75.80
2019-05-28T06:22:23.520Z,76.30
2019-05-28T06:23:24.635Z,76.10
2019-05-28T06:24:25.753Z,75.70
2019-05-28T06:25:26.844Z,75.20
2019-05-28T06:26:27.960Z,75.20
2019-05-28T06:27:29.041Z,76.20
2019-05-28T06:28:30.117Z,76.20
2019-05-28T06:29:31.177Z,76.20
2019-05-28T06:30:32.248Z,76.60
2019-05-28T06:31:33.337Z,77.30
2019-05-28T06:32:35.748Z,76.90
2019-05-28T06:33:37.476Z,77.70
2019-05-28T06:34:38.632Z,76.60
2019-05-28T06:35:39.690Z,76.20
2019-05-28T06:36:40.775Z,76.10
2019-05-28T06:37:41.952Z,76.10
2019-05-28T06:38:43.053Z,76.60
2019-05-28T06:39:44.156Z,76.70
2019-05-28T06:40:45.341Z,76.30
2019-05-28T06:41:46.505Z,76.00
2019-05-28T06:42:47.570Z,75.70
2019-05-28T06:43:48.744Z,75.80
2019-05-28T06:44:49.929Z,75.80
2019-05-28T06:45:51.112Z,75.50
2019-05-28T06:46:52.261Z,75.50
2019-05-28T06:47:53.384Z,74.80
2019-05-28T06:48:54.463Z,75.00
2019-05-28T06:49:55.559Z,73.80
2019-05-28T06:50:56.737Z,74.40
2019-05-28T06:51:58.016Z,74.60
2019-05-28T06:52:59.189Z,74.00
2019-05-28T06:54:00.272Z,74.00
2019-05-28T06:55:01.337Z,74.10
2019-05-28T06:56:02.610Z,74.40
2019-05-28T06:57:21.538Z,74.50
2019-05-28T06:58:07.136Z,73.90
2019-05-28T06:59:08.217Z,73.80
2019-05-28T07:00:09.960Z,73.60
2019-05-28T07:01:11.119Z,75.80
2019-05-28T07:02:12.276Z,76.00
2019-05-28T07:03:13.352Z,75.30
2019-05-28T07:04:31.363Z,75.00
2019-05-28T07:05:17.650Z,74.60
2019-05-28T07:06:18.844Z,73.20
2019-05-28T07:07:20.132Z,73.20
2019-05-28T07:08:21.298Z,73.30
2019-05-28T07:09:22.525Z,72.90
2019-05-28T07:10:23.884Z,72.90
2019-05-28T07:11:24.952Z,73.40
2019-05-28T07:12:26.322Z,73.40
2019-05-28T07:13:27.478Z,73.40
2019-05-28T07:14:28.564Z,73.10
2019-05-28T07:15:29.645Z,72.90
2019-05-28T07:16:30.850Z,73.10
2019-05-28T07:17:32.038Z,73.20
2019-05-28T07:18:33.120Z,73.40
2019-05-28T07:19:34.189Z,72.80
2019-05-28T07:20:35.364Z,72.20
2019-05-28T07:21:36.511Z,72.40
2019-05-28T07:22:37.580Z,72.10
2019-05-28T07:23:38.676Z,72.70
2019-05-28T07:24:39.744Z,72.50
2019-05-28T07:25:41.097Z,72.10
2019-05-28T07:26:42.188Z,72.60
2019-05-28T07:27:43.361Z,72.50
2019-05-28T07:28:44.520Z,71.70
2019-05-28T07:29:45.586Z,71.20
2019-05-28T07:30:46.641Z,71.10
2019-05-28T07:31:47.730Z,71.50
2019-05-28T07:32:48.967Z,72.00
2019-05-28T07:33:50.186Z,73.50
2019-05-28T07:34:51.367Z,72.70
2019-05-28T07:35:52.482Z,73.30
2019-05-28T07:36:53.629Z,73.20
2019-05-28T07:37:54.691Z,72.70
2019-05-28T07:38:55.875Z,73.50
2019-05-28T07:39:56.929Z,73.40
2019-05-28T07:40:58.184Z,73.40
2019-05-28T07:41:59.364Z,74.20
2019-05-28T07:43:00.727Z,74.40
2019-05-28T07:44:01.948Z,74.60
2019-05-28T07:45:05.387Z,73.30
2019-05-28T07:46:06.565Z,74.00
2019-05-28T07:47:10.942Z,74.30
2019-05-28T07:48:10.613Z,75.30
2019-05-28T07:49:11.711Z,75.10
2019-05-28T07:50:13.141Z,74.70
2019-05-28T07:51:14.245Z,75.00
2019-05-28T07:52:15.400Z,75.60
2019-05-28T07:53:16.593Z,76.20
2019-05-28T07:54:17.866Z,76.70
2019-05-28T07:55:19.005Z,77.00
2019-05-28T07:56:20.161Z,77.00
2019-05-28T07:57:21.235Z,77.60
2019-05-28T07:58:22.393Z,77.60
2019-05-28T07:59:23.570Z,77.60
2019-05-28T08:00:38.738Z,77.40
2019-05-28T08:01:39.907Z,77.50
2019-05-28T08:02:41.073Z,77.80
2019-05-28T08:03:42.162Z,77.70
2019-05-28T08:04:47.143Z,77.30
2019-05-28T08:05:46.345Z,77.60
2019-05-28T08:06:54.777Z,78.10
2019-05-28T08:07:50.585Z,78.30
2019-05-28T08:08:51.865Z,77.40
2019-05-28T08:09:52.963Z,78.00
2019-05-28T08:10:54.233Z,77.30
2019-05-28T08:11:55.300Z,77.30
2019-05-28T08:12:56.365Z,77.60
2019-05-28T08:13:57.450Z,78.30
2019-05-28T08:14:58.649Z,78.40
2019-05-28T08:16:16.894Z,77.60
2019-05-28T08:17:03.182Z,77.40
2019-05-28T08:18:04.259Z,77.50
2019-05-28T08:19:08.716Z,77.60
2019-05-28T08:20:08.744Z,77.50
2019-05-28T08:21:09.802Z,77.20
2019-05-28T08:22:13.602Z,77.30
2019-05-28T08:23:13.839Z,77.50
2019-05-28T08:24:14.924Z,76.50
2019-05-28T08:25:33.529Z,77.00
2019-05-28T08:26:19.449Z,77.60
2019-05-28T08:27:20.597Z,76.40
2019-05-28T08:28:22.065Z,75.50
2019-05-28T08:29:23.229Z,75.30
2019-05-28T08:30:24.306Z,75.20
2019-05-28T08:31:25.468Z,75.40
2019-05-28T08:32:26.529Z,75.40
2019-05-28T08:33:27.658Z,76.00
2019-05-28T08:34:28.737Z,76.50
2019-05-28T08:35:29.906Z,76.40
2019-05-28T08:36:31.128Z,75.60
2019-05-28T08:37:32.282Z,75.70
2019-05-28T08:38:33.728Z,75.90
2019-05-28T08:39:34.899Z,75.80
2019-05-28T08:40:35.972Z,75.50
2019-05-28T08:41:37.141Z,75.40
2019-05-28T08:42:38.409Z,75.70
2019-05-28T08:43:39.917Z,75.40
2019-05-28T08:44:41.017Z,74.60
2019-05-28T08:45:42.877Z,73.90
2019-05-28T08:46:44.242Z,73.90
2019-05-28T08:47:45.327Z,72.90
2019-05-28T08:49:06.386Z,72.00
2019-05-28T08:50:08.270Z,72.90
2019-05-28T08:51:10.324Z,72.20
2019-05-28T08:52:11.749Z,72.60
2019-05-28T08:53:12.820Z,73.50
2019-05-28T08:54:13.893Z,73.00
2019-05-28T08:55:15.292Z,71.70
2019-05-28T08:56:16.354Z,72.40
2019-05-28T08:57:17.663Z,72.90
2019-05-28T08:58:18.817Z,72.50
2019-05-28T08:59:19.968Z,71.60
2019-05-28T09:00:35.667Z,70.00
2019-05-28T09:01:37.037Z,70.90
2019-05-28T09:02:38.193Z,73.00
2019-05-28T09:03:39.349Z,73.30
2019-05-28T09:04:40.747Z,72.00
2019-05-28T09:05:42.224Z,72.80
2019-05-28T09:06:43.467Z,72.40
2019-05-28T09:07:44.572Z,71.40
2019-05-28T09:08:45.623Z,68.30
2019-05-28T09:09:46.684Z,67.20
2019-05-28T09:10:47.767Z,65.80
2019-05-28T09:11:48.825Z,66.10
2019-05-28T09:12:49.971Z,64.50
2019-05-28T09:13:51.074Z,63.00
2019-05-28T09:14:56.354Z,64.40
2019-05-28T09:15:56.202Z,64.10
2019-05-28T09:16:57.444Z,65.20
2019-05-28T09:17:58.638Z,64.10
2019-05-28T09:18:59.725Z,63.60
2019-05-28T09:20:00.784Z,61.50
2019-05-28T09:21:02.064Z,62.90
2019-05-28T09:22:03.221Z,63.40
2019-05-28T09:23:04.303Z,61.70
2019-05-28T09:24:05.465Z,61.70
2019-05-28T09:25:06.835Z,62.70
2019-05-28T09:26:08.015Z,61.60
2019-05-28T09:27:09.183Z,61.70
2019-05-28T09:28:25.653Z,62.70
2019-05-28T09:29:13.361Z,63.80
2019-05-28T09:30:15.269Z,62.40
2019-05-28T09:31:16.723Z,62.80
2019-05-28T09:32:17.801Z,63.70
2019-05-28T09:33:18.965Z,63.10
2019-05-28T09:34:20.174Z,63.80
2019-05-28T09:35:21.325Z,63.90
2019-05-28T09:36:22.493Z,63.20
2019-05-28T09:37:23.674Z,62.90
2019-05-28T09:38:24.835Z,63.20
2019-05-28T09:39:26.006Z,63.70
2019-05-28T09:40:27.104Z,63.40
2019-05-28T09:41:28.389Z,63.20
2019-05-28T09:42:29.568Z,62.30
2019-05-28T09:43:30.643Z,62.80
2019-05-28T09:44:32.077Z,62.60
2019-05-28T09:45:33.135Z,61.00
2019-05-28T09:46:34.206Z,61.80
2019-05-28T09:47:35.381Z,60.60
2019-05-28T09:48:36.446Z,62.70
2019-05-28T09:49:37.742Z,61.20
2019-05-28T09:50:38.915Z,59.80
2019-05-28T09:51:40.003Z,59.80
2019-05-28T09:52:53.472Z,59.80
2019-05-28T09:53:44.148Z,59.90
2019-05-28T09:54:45.335Z,59.40
2019-05-28T09:55:46.507Z,59.40
2019-05-28T09:56:47.617Z,59.90
2019-05-28T09:57:48.765Z,59.80
2019-05-28T09:58:49.829Z,59.80
2019-05-28T09:59:51.017Z,60.20
2019-05-28T10:00:58.214Z,59.50
2019-05-28T10:01:55.383Z,56.70
2019-05-28T10:02:56.822Z,56.70
2019-05-28T10:03:57.885Z,58.10
2019-05-28T10:04:58.956Z,58.90
2019-05-28T10:06:15.648Z,58.40
2019-05-28T10:07:03.147Z,57.70
2019-05-28T10:08:04.388Z,56.30
2019-05-28T10:09:05.671Z,57.70
2019-05-28T10:10:07.314Z,57.00
2019-05-28T10:11:08.394Z,55.60
2019-05-28T10:12:09.547Z,56.40
2019-05-28T10:13:10.916Z,56.90
2019-05-28T10:14:12.109Z,56.40
2019-05-28T10:15:14.957Z,56.70
2019-05-28T10:16:16.140Z,55.70
2019-05-28T10:17:17.289Z,55.50
2019-05-28T10:18:18.487Z,56.10
2019-05-28T10:19:19.658Z,55.20
2019-05-28T10:20:21.526Z,55.50
2019-05-28T10:21:22.710Z,56.70
2019-05-28T10:22:23.882Z,55.00
2019-05-28T10:23:25.100Z,54.70
2019-05-28T10:24:26.210Z,54.50
2019-05-28T10:25:27.373Z,54.40
2019-05-28T10:26:28.583Z,55.00
2019-05-28T10:27:29.925Z,55.20
2019-05-28T10:28:31.092Z,54.50
2019-05-28T10:29:32.214Z,54.50
2019-05-28T10:30:33.402Z,53.60
2019-05-28T10:31:34.605Z,53.20
2019-05-28T10:32:36.825Z,53.60
2019-05-28T10:33:38.290Z,52.00
2019-05-28T10:34:39.378Z,52.10
2019-05-28T10:35:40.445Z,53.10
2019-05-28T10:36:41.749Z,53.20
2019-05-28T10:37:43.010Z,52.60
2019-05-28T10:38:44.292Z,52.00
2019-05-28T10:39:45.458Z,51.60
2019-05-28T10:40:46.526Z,49.30
2019-05-28T10:41:47.615Z,50.70
2019-05-28T10:42:48.791Z,48.10
2019-05-28T10:43:49.886Z,48.50
2019-05-28T10:44:51.037Z,48.60
2019-05-28T10:45:52.669Z,49.60
2019-05-28T10:46:54.333Z,48.80
2019-05-28T10:47:55.499Z,49.60
2019-05-28T10:48:56.690Z,50.50
2019-05-28T10:49:57.836Z,48.50
2019-05-28T10:50:59.006Z,49.70
2019-05-28T10:52:00.189Z,49.10
2019-05-28T10:53:01.324Z,49.40
2019-05-28T10:54:02.978Z,49.40
2019-05-28T10:55:07.190Z,48.80
2019-05-28T10:56:08.375Z,48.60
2019-05-28T10:57:09.575Z,49.30
2019-05-28T10:58:10.769Z,47.10
2019-05-28T10:59:12.121Z,48.40
2019-05-28T11:00:13.883Z,49.60
2019-05-28T11:01:15.328Z,50.00
2019-05-28T11:02:16.871Z,49.90
2019-05-28T11:03:18.308Z,49.40
2019-05-28T11:04:19.391Z,49.60
2019-05-28T11:05:22.172Z,49.40
2019-05-28T11:06:23.344Z,48.30
2019-05-28T11:07:24.742Z,47.50
2019-05-28T11:08:25.909Z,47.80
2019-05-28T11:09:27.065Z,48.40
2019-05-28T11:10:28.137Z,48.40
2019-05-28T11:11:29.201Z,48.90
2019-05-28T11:12:30.285Z,48.40
2019-05-28T11:13:31.449Z,49.10
2019-05-28T11:14:32.604Z,48.20
2019-05-28T11:15:33.680Z,47.70
2019-05-28T11:16:34.853Z,48.30
2019-05-28T11:17:36.149Z,47.40
2019-05-28T11:18:37.329Z,47.50
2019-05-28T11:19:38.504Z,46.90
2019-05-28T11:20:39.605Z,47.10
2019-05-28T11:21:40.677Z,47.60
2019-05-28T11:22:41.741Z,47.50
2019-05-28T11:23:42.820Z,47.50
2019-05-28T11:24:43.993Z,48.80
2019-05-28T11:25:45.167Z,48.40
2019-05-28T11:26:46.524Z,48.20
2019-05-28T11:27:47.709Z,48.80
2019-05-28T11:28:48.891Z,49.40
2019-05-28T11:29:49.958Z,48.70
2019-05-28T11:30:51.141Z,49.50
2019-05-28T11:31:52.307Z,49.00
2019-05-28T11:32:53.503Z,48.00
2019-05-28T11:33:54.626Z,48.40
2019-05-28T11:34:55.694Z,49.10
2019-05-28T11:35:56.752Z,49.00
2019-05-28T11:37:08.738Z,48.80
2019-05-28T11:38:00.802Z,47.40
2019-05-28T11:39:03.565Z,47.70
2019-05-28T11:40:07.733Z,47.40
2019-05-28T11:41:08.833Z,47.80
2019-05-28T11:42:10.022Z,47.50
2019-05-28T11:43:11.183Z,47.60
2019-05-28T11:44:12.265Z,47.70
2019-05-28T11:45:15.707Z,47.40
2019-05-28T11:46:17.077Z,47.10
2019-05-28T11:47:18.182Z,47.30
2019-05-28T11:48:19.469Z,47.20
2019-05-28T11:49:20.555Z,46.40
2019-05-28T11:50:22.133Z,47.30
2019-05-28T11:51:23.297Z,46.10
2019-05-28T11:52:24.381Z,46.50
2019-05-28T11:53:25.450Z,45.60
2019-05-28T11:54:26.632Z,46.10
2019-05-28T11:55:27.814Z,46.70
2019-05-28T11:56:29.086Z,46.20
2019-05-28T11:57:30.165Z,46.80
2019-05-28T11:58:31.363Z,45.10
2019-05-28T11:59:32.537Z,46.60
2019-05-28T12:00:34.314Z,45.10
2019-05-28T12:01:35.627Z,45.70
2019-05-28T12:02:36.872Z,45.20
2019-05-28T12:03:38.093Z,45.00
2019-05-28T12:04:39.259Z,45.20
2019-05-28T12:05:40.348Z,45.10
2019-05-28T12:06:41.517Z,45.40
2019-05-28T12:07:42.693Z,45.50
2019-05-28T12:08:44.445Z,45.10
2019-05-28T12:09:45.514Z,45.20
2019-05-28T12:10:46.584Z,43.60
2019-05-28T12:11:47.749Z,44.80
2019-05-28T12:12:48.801Z,43.90
2019-05-28T12:13:50.130Z,43.00
2019-05-28T12:14:51.212Z,44.20
2019-05-28T12:15:52.592Z,43.60
2019-05-28T12:16:53.752Z,43.60
2019-05-28T12:17:54.916Z,43.10
2019-05-28T12:18:58.321Z,41.80
2019-05-28T12:19:58.961Z,42.00
2019-05-28T12:21:00.112Z,39.40
2019-05-28T12:22:01.236Z,40.10
2019-05-28T12:23:11.294Z,40.30
2019-05-28T12:24:05.373Z,41.00
2019-05-28T12:25:08.732Z,41.50
2019-05-28T12:26:10.135Z,41.50
2019-05-28T12:27:11.273Z,41.20
2019-05-28T12:28:12.324Z,39.50
2019-05-28T12:29:13.389Z,39.60
2019-05-28T12:30:18.151Z,39.50
2019-05-28T12:31:18.298Z,38.80
2019-05-28T12:32:19.374Z,38.90
2019-05-28T12:33:20.464Z,39.20
2019-05-28T12:34:21.646Z,39.50
2019-05-28T12:35:28.938Z,39.70
2019-05-28T12:36:26.145Z,40.60
2019-05-28T12:37:46.454Z,39.70
2019-05-28T12:38:30.726Z,39.70
2019-05-28T12:39:31.869Z,40.40
2019-05-28T12:40:46.444Z,39.50
2019-05-28T12:41:35.902Z,38.40
2019-05-28T12:42:36.961Z,39.70
2019-05-28T12:43:38.033Z,39.20
2019-05-28T12:44:42.493Z,38.50
2019-05-28T12:45:42.430Z,39.50
2019-05-28T12:46:43.494Z,39.50
2019-05-28T12:47:44.754Z,38.60
2019-05-28T12:48:45.850Z,39.40
2019-05-28T12:49:47.006Z,39.00
2019-05-28T12:50:48.061Z,39.20
2019-05-28T12:51:49.363Z,39.60
2019-05-28T12:52:50.483Z,39.90
2019-05-28T12:53:51.804Z,39.90
2019-05-28T12:54:53.135Z,40.60
2019-05-28T12:55:54.286Z,40.50
2019-05-28T12:56:55.928Z,37.40
2019-05-28T12:57:56.990Z,37.50
2019-05-28T12:58:58.266Z,38.20
2019-05-28T13:00:00.887Z,38.10
2019-05-28T13:01:02.461Z,38.60
2019-05-28T13:02:03.849Z,39.50
2019-05-28T13:03:04.910Z,38.90
2019-05-28T13:04:06.161Z,38.70
2019-05-28T13:05:14.177Z,38.80
2019-05-28T13:06:16.586Z,39.00
2019-05-28T13:07:17.746Z,38.70
2019-05-28T13:08:18.834Z,38.10
2019-05-28T13:09:19.938Z,38.70
2019-05-28T13:10:21.219Z,39.40
2019-05-28T13:11:22.409Z,39.60